createdAt,value
2019-05-14T00:16:43.113Z,18.4
2019-05-14T00:33:28.193Z,18.4
2019-05-14T00:50:13.454Z,18.4
2019-05-14T01:06:58.711Z,18.4
2019-05-14T01:23:43.892Z,18.4
2019-05-14T01:40:31.263Z,18.4
2019-05-14T01:57:14.315Z,18.1
2019-05-14T02:13:58.682Z,18.1
2019-05-14T02:30:52.590Z,18.1
2019-05-14T02:47:29.847Z,18.1
2019-05-14T03:04:12.963Z,18.1
2019-05-14T03:21:00.856Z,17.8
2019-05-14T03:37:42.417Z,17.8
2019-05-14T03:54:29.697Z,17.8
2019-05-14T04:11:11.406Z,17.8
2019-05-14T04:27:55.859Z,17.8
2019-05-14T04:44:40.809Z,18.1
2019-05-14T05:01:24.879Z,18.4
2019-05-14T05:18:10.470Z,18.7
2019-05-14T05:33:15.720Z,19.4
2019-05-14T05:50:01.955Z,19.4
2019-05-14T06:06:48.412Z,19.4
2019-05-14T06:23:34.837Z,19.7
2019-05-14T06:40:21.376Z,19.7
2019-05-14T06:57:08.904Z,19.7
2019-05-14T07:13:54.882Z,20.0
2019-05-14T07:30:41.907Z,19.7
2019-05-14T07:47:29.149Z,20.0
2019-05-14T08:04:17.856Z,20.0
2019-05-14T08:21:02.549Z,20.0
2019-05-14T08:38:03.454Z,20.0
2019-05-14T08:54:39.064Z,20.3
2019-05-14T09:11:26.113Z,20.3
2019-05-14T09:28:11.697Z,20.3
2019-05-14T09:44:59.711Z,20.3
2019-05-14T10:01:50.410Z,20.3
2019-05-14T10:18:33.748Z,20.3
2019-05-14T10:35:21.229Z,20.3
2019-05-14T10:52:08.835Z,20.3
2019-05-14T11:08:56.136Z,20.3
2019-05-14T11:25:44.069Z,20.6
2019-05-14T11:42:31.775Z,20.6
2019-05-14T11:59:19.583Z,20.6
2019-05-14T12:16:08.617Z,21.0
2019-05-14T12:32:56.475Z,21.0
2019-05-14T12:49:44.065Z,21.0
2019-05-14T13:06:33.066Z,21.3
2019-05-14T13:23:21.578Z,21.0
2019-05-14T13:40:09.557Z,21.0
2019-05-14T13:56:58.652Z,21.0
2019-05-14T14:13:48.729Z,21.0
2019-05-14T14:30:34.651Z,21.3
2019-05-14T14:47:23.035Z,21.0
2019-05-14T15:04:13.477Z,21.0
2019-05-14T15:20:59.878Z,21.0
2019-05-14T15:37:48.788Z,21.0
2019-05-14T15:54:46.291Z,21.0
2019-05-14T16:11:25.180Z,21.0
2019-05-14T16:28:13.632Z,21.0
2019-05-14T16:45:01.031Z,20.6
2019-05-14T17:01:49.266Z,20.6
2019-05-14T17:18:37.332Z,20.6
2019-05-14T17:35:24.368Z,20.3
2019-05-14T17:52:11.788Z,20.3
2019-05-14T18:08:59.219Z,20.3
2019-05-14T18:26:01.018Z,20.0
2019-05-14T18:42:33.750Z,20.0
2019-05-14T18:59:21.582Z,20.0
2019-05-14T19:16:08.396Z,19.7
2019-05-14T19:32:55.016Z,19.7
2019-05-14T19:49:42.072Z,19.7
2019-05-14T20:06:29.603Z,19.7
2019-05-14T20:23:18.348Z,19.7
2019-05-14T20:40:02.767Z,19.4
2019-05-14T20:56:49.456Z,19.4
2019-05-14T21:13:35.505Z,19.4
2019-05-14T21:30:22.016Z,19.4
2019-05-14T21:47:08.344Z,19.4
2019-05-14T22:03:53.341Z,19.4
2019-05-14T22:20:39.042Z,19.0
2019-05-14T22:37:24.494Z,19.0
2019-05-14T22:54:09.969Z,18.7
2019-05-14T23:10:55.374Z,18.7
2019-05-14T23:27:40.583Z,18.7
2019-05-14T23:44:25.974Z,18.7
